sensor_id;sensor_type;location;lat;lon;timestamp;temperature;humidity
14401;DHT22;7285;50.894;5.462;2024-03-22T00:02:23;11.30;99.90
14401;DHT22;7285;50.894;5.462;2024-03-22T00:04:50;11.30;99.90
14401;DHT22;7285;50.894;5.462;2024-03-22T00:07:16;11.30;99.90
14401;DHT22;7285;50.894;5.462;2024-03-22T00:09:43;11.20;99.90
14401;DHT22;7285;50.894;5.462;2024-03-22T00:12:10;11.20;99.90
14401;DHT22;7285;50.894;5.462;2024-03-22T00:14:37;11.20;99.90
14401;DHT22;7285;50.894;5.462;2024-03-22T00:17:04;11.20;99.90
14401;DHT22;7285;50.894;5.462;2024-03-22T00:19:31;11.30;99.90
14401;DHT22;7285;50.894;5.462;2024-03-22T00:21:57;11.30;99.90
14401;DHT22;7285;50.894;5.462;2024-03-22T00:24:24;11.20;99.90
14401;DHT22;7285;50.894;5.462;2024-03-22T00:26:50;11.20;99.90
14401;DHT22;7285;50.894;5.462;2024-03-22T00:29:17;11.20;99.90
14401;DHT22;7285;50.894;5.462;2024-03-22T00:31:42;11.20;99.90
14401;DHT22;7285;50.894;5.462;2024-03-22T00:34:11;11.20;99.90
14401;DHT22;7285;50.894;5.462;2024-03-22T00:36:37;11.20;99.90
14401;DHT22;7285;50.894;5.462;2024-03-22T00:39:03;11.20;99.90
14401;DHT22;7285;50.894;5.462;2024-03-22T00:41:29;11.20;99.90
14401;DHT22;7285;50.894;5.462;2024-03-22T00:43:57;11.30;99.90
14401;DHT22;7285;50.894;5.462;2024-03-22T00:46:23;11.30;99.90
14401;DHT22;7285;50.894;5.462;2024-03-22T00:48:50;11.30;99.90
14401;DHT22;7285;50.894;5.462;2024-03-22T00:51:17;11.30;99.90
14401;DHT22;7285;50.894;5.462;2024-03-22T00:53:44;11.30;99.90
14401;DHT22;7285;50.894;5.462;2024-03-22T00:56:10;11.30;99.90
14401;DHT22;7285;50.894;5.462;2024-03-22T00:58:37;11.30;99.90
14401;DHT22;7285;50.894;5.462;2024-03-22T01:01:03;11.40;99.90
14401;DHT22;7285;50.894;5.462;2024-03-22T01:03:30;11.40;99.90
14401;DHT22;7285;50.894;5.462;2024-03-22T01:05:56;11.40;99.90
14401;DHT22;7285;50.894;5.462;2024-03-22T01:08:25;11.50;99.90
14401;DHT22;7285;50.894;5.462;2024-03-22T01:10:51;11.50;99.90
14401;DHT22;7285;50.894;5.462;2024-03-22T01:13:18;11.50;99.90
14401;DHT22;7285;50.894;5.462;2024-03-22T01:15:44;11.50;99.90
14401;DHT22;7285;50.894;5.462;2024-03-22T01:18:11;11.50;99.90
14401;DHT22;7285;50.894;5.462;2024-03-22T01:20:38;11.60;99.90
14401;DHT22;7285;50.894;5.462;2024-03-22T01:23:04;11.60;99.90
14401;DHT22;7285;50.894;5.462;2024-03-22T01:25:32;11.60;99.90
14401;DHT22;7285;50.894;5.462;2024-03-22T01:27:58;11.60;99.90
14401;DHT22;7285;50.894;5.462;2024-03-22T01:30:25;11.60;99.90
14401;DHT22;7285;50.894;5.462;2024-03-22T01:32:54;11.60;99.90
14401;DHT22;7285;50.894;5.462;2024-03-22T01:35:21;11.60;99.90
14401;DHT22;7285;50.894;5.462;2024-03-22T01:37:46;11.50;99.90
14401;DHT22;7285;50.894;5.462;2024-03-22T01:40:14;11.60;99.90
14401;DHT22;7285;50.894;5.462;2024-03-22T01:42:41;11.60;99.90
14401;DHT22;7285;50.894;5.462;2024-03-22T01:45:12;11.50;99.90
14401;DHT22;7285;50.894;5.462;2024-03-22T01:47:39;11.50;99.90
14401;DHT22;7285;50.894;5.462;2024-03-22T01:50:08;11.50;99.90
14401;DHT22;7285;50.894;5.462;2024-03-22T01:52:34;11.50;99.90
14401;DHT22;7285;50.894;5.462;2024-03-22T01:55:01;11.60;99.90
14401;DHT22;7285;50.894;5.462;2024-03-22T01:57:27;11.60;99.90
14401;DHT22;7285;50.894;5.462;2024-03-22T01:59:57;11.60;99.90
14401;DHT22;7285;50.894;5.462;2024-03-22T02:02:23;11.60;99.90
14401;DHT22;7285;50.894;5.462;2024-03-22T02:04:51;11.50;99.90
14401;DHT22;7285;50.894;5.462;2024-03-22T02:07:17;11.50;99.90
14401;DHT22;7285;50.894;5.462;2024-03-22T02:09:44;11.50;99.90
14401;DHT22;7285;50.894;5.462;2024-03-22T02:12:10;11.60;99.90
14401;DHT22;7285;50.894;5.462;2024-03-22T02:14:37;11.60;99.90
14401;DHT22;7285;50.894;5.462;2024-03-22T02:17:04;11.60;99.90
14401;DHT22;7285;50.894;5.462;2024-03-22T02:19:31;11.60;99.90
14401;DHT22;7285;50.894;5.462;2024-03-22T02:21:57;11.50;99.90
14401;DHT22;7285;50.894;5.462;2024-03-22T02:24:25;11.50;99.90
14401;DHT22;7285;50.894;5.462;2024-03-22T02:26:51;11.50;99.90
14401;DHT22;7285;50.894;5.462;2024-03-22T02:29:18;11.50;99.90
14401;DHT22;7285;50.894;5.462;2024-03-22T02:31:44;11.60;99.90
14401;DHT22;7285;50.894;5.462;2024-03-22T02:34:11;11.60;99.90
14401;DHT22;7285;50.894;5.462;2024-03-22T02:36:37;11.60;99.90
14401;DHT22;7285;50.894;5.462;2024-03-22T02:39:04;11.60;99.90
14401;DHT22;7285;50.894;5.462;2024-03-22T02:41:31;11.60;99.90
14401;DHT22;7285;50.894;5.462;2024-03-22T02:43:58;11.60;99.90
14401;DHT22;7285;50.894;5.462;2024-03-22T02:46:24;11.50;99.90
14401;DHT22;7285;50.894;5.462;2024-03-22T02:48:51;11.50;99.90
14401;DHT22;7285;50.894;5.462;2024-03-22T02:51:16;11.50;99.90
14401;DHT22;7285;50.894;5.462;2024-03-22T02:53:43;11.50;99.90
14401;DHT22;7285;50.894;5.462;2024-03-22T02:56:09;11.50;99.90
14401;DHT22;7285;50.894;5.462;2024-03-22T02:58:37;11.50;99.90
14401;DHT22;7285;50.894;5.462;2024-03-22T03:01:03;11.60;99.90
14401;DHT22;7285;50.894;5.462;2024-03-22T03:03:31;11.60;99.90
14401;DHT22;7285;50.894;5.462;2024-03-22T03:05:57;11.60;99.90
14401;DHT22;7285;50.894;5.462;2024-03-22T03:08:24;11.60;99.90
14401;DHT22;7285;50.894;5.462;2024-03-22T03:10:50;11.50;99.90
14401;DHT22;7285;50.894;5.462;2024-03-22T03:13:16;11.50;99.90
14401;DHT22;7285;50.894;5.462;2024-03-22T03:15:44;11.40;99.90
14401;DHT22;7285;50.894;5.462;2024-03-22T03:18:11;11.40;99.90
14401;DHT22;7285;50.894;5.462;2024-03-22T03:20:36;11.40;99.90
14401;DHT22;7285;50.894;5.462;2024-03-22T03:23:04;11.40;99.90
14401;DHT22;7285;50.894;5.462;2024-03-22T03:25:29;11.30;99.90
14401;DHT22;7285;50.894;5.462;2024-03-22T03:27:56;11.30;99.90
14401;DHT22;7285;50.894;5.462;2024-03-22T03:30:22;11.30;99.90
14401;DHT22;7285;50.894;5.462;2024-03-22T03:32:50;11.40;99.90
14401;DHT22;7285;50.894;5.462;2024-03-22T03:35:16;11.30;99.90
14401;DHT22;7285;50.894;5.462;2024-03-22T03:37:43;11.30;99.90
14401;DHT22;7285;50.894;5.462;2024-03-22T03:40:10;11.30;99.90
14401;DHT22;7285;50.894;5.462;2024-03-22T03:42:36;11.40;99.90
14401;DHT22;7285;50.894;5.462;2024-03-22T03:45:03;11.40;99.90
14401;DHT22;7285;50.894;5.462;2024-03-22T03:47:29;11.40;99.90
14401;DHT22;7285;50.894;5.462;2024-03-22T03:49:57;11.40;99.90
14401;DHT22;7285;50.894;5.462;2024-03-22T03:52:24;11.40;99.90
14401;DHT22;7285;50.894;5.462;2024-03-22T03:54:50;11.40;99.90
14401;DHT22;7285;50.894;5.462;2024-03-22T03:57:17;11.40;99.90
14401;DHT22;7285;50.894;5.462;2024-03-22T03:59:43;11.40;99.90
14401;DHT22;7285;50.894;5.462;2024-03-22T04:02:10;11.40;99.90
14401;DHT22;7285;50.894;5.462;2024-03-22T04:04:36;11.40;99.90
14401;DHT22;7285;50.894;5.462;2024-03-22T04:07:04;11.40;99.90
14401;DHT22;7285;50.894;5.462;2024-03-22T04:09:31;11.40;99.90
14401;DHT22;7285;50.894;5.462;2024-03-22T04:11:58;11.40;99.90
14401;DHT22;7285;50.894;5.462;2024-03-22T04:14:24;11.50;99.90
14401;DHT22;7285;50.894;5.462;2024-03-22T04:16:51;11.50;99.90
14401;DHT22;7285;50.894;5.462;2024-03-22T04:19:20;11.50;99.90
14401;DHT22;7285;50.894;5.462;2024-03-22T04:21:46;11.50;99.90
14401;DHT22;7285;50.894;5.462;2024-03-22T04:24:14;11.40;99.90
14401;DHT22;7285;50.894;5.462;2024-03-22T04:26:41;11.40;99.90
14401;DHT22;7285;50.894;5.462;2024-03-22T04:29:07;11.50;99.90
14401;DHT22;7285;50.894;5.462;2024-03-22T04:31:33;11.50;99.90
14401;DHT22;7285;50.894;5.462;2024-03-22T04:33:59;11.50;99.90
14401;DHT22;7285;50.894;5.462;2024-03-22T04:36:26;11.50;99.90
14401;DHT22;7285;50.894;5.462;2024-03-22T04:38:52;11.50;99.90
14401;DHT22;7285;50.894;5.462;2024-03-22T04:41:20;11.50;99.90
14401;DHT22;7285;50.894;5.462;2024-03-22T04:43:47;11.60;99.90
14401;DHT22;7285;50.894;5.462;2024-03-22T04:46:14;11.60;99.90
14401;DHT22;7285;50.894;5.462;2024-03-22T04:48:41;11.60;99.90
14401;DHT22;7285;50.894;5.462;2024-03-22T04:51:07;11.60;99.90
14401;DHT22;7285;50.894;5.462;2024-03-22T04:53:34;11.70;99.90
14401;DHT22;7285;50.894;5.462;2024-03-22T04:56:00;11.60;99.90
14401;DHT22;7285;50.894;5.462;2024-03-22T04:58:28;11.70;99.90
14401;DHT22;7285;50.894;5.462;2024-03-22T05:00:57;11.70;99.90
14401;DHT22;7285;50.894;5.462;2024-03-22T05:03:24;11.70;99.90
14401;DHT22;7285;50.894;5.462;2024-03-22T05:05:50;11.70;99.90
14401;DHT22;7285;50.894;5.462;2024-03-22T05:08:17;11.80;99.90
14401;DHT22;7285;50.894;5.462;2024-03-22T05:10:43;11.80;99.90
14401;DHT22;7285;50.894;5.462;2024-03-22T05:13:10;11.80;99.90
14401;DHT22;7285;50.894;5.462;2024-03-22T05:15:37;11.80;99.90
14401;DHT22;7285;50.894;5.462;2024-03-22T05:18:04;11.80;99.90
14401;DHT22;7285;50.894;5.462;2024-03-22T05:20:30;11.80;99.90
14401;DHT22;7285;50.894;5.462;2024-03-22T05:22:57;11.70;99.90
14401;DHT22;7285;50.894;5.462;2024-03-22T05:25:23;11.70;99.90
14401;DHT22;7285;50.894;5.462;2024-03-22T05:27:51;11.70;99.90
14401;DHT22;7285;50.894;5.462;2024-03-22T05:30:17;11.70;99.90
14401;DHT22;7285;50.894;5.462;2024-03-22T05:32:45;11.70;99.90
14401;DHT22;7285;50.894;5.462;2024-03-22T05:35:11;11.70;99.90
14401;DHT22;7285;50.894;5.462;2024-03-22T05:37:38;11.70;99.90
14401;DHT22;7285;50.894;5.462;2024-03-22T05:40:06;11.70;99.90
14401;DHT22;7285;50.894;5.462;2024-03-22T05:42:34;11.60;99.90
14401;DHT22;7285;50.894;5.462;2024-03-22T05:45:00;11.60;99.90
14401;DHT22;7285;50.894;5.462;2024-03-22T05:47:27;11.60;99.90
14401;DHT22;7285;50.894;5.462;2024-03-22T05:49:54;11.60;99.90
14401;DHT22;7285;50.894;5.462;2024-03-22T05:52:21;11.70;99.90
14401;DHT22;7285;50.894;5.462;2024-03-22T05:54:47;11.60;99.90
14401;DHT22;7285;50.894;5.462;2024-03-22T05:57:13;11.70;99.90
14401;DHT22;7285;50.894;5.462;2024-03-22T05:59:40;11.60;99.90
14401;DHT22;7285;50.894;5.462;2024-03-22T06:02:07;11.60;99.90
14401;DHT22;7285;50.894;5.462;2024-03-22T06:04:33;11.60;99.90
14401;DHT22;7285;50.894;5.462;2024-03-22T06:07:01;11.70;99.90
14401;DHT22;7285;50.894;5.462;2024-03-22T06:09:29;11.70;99.90
14401;DHT22;7285;50.894;5.462;2024-03-22T06:12:03;11.70;99.90
14401;DHT22;7285;50.894;5.462;2024-03-22T06:14:29;11.70;99.90
14401;DHT22;7285;50.894;5.462;2024-03-22T06:16:56;11.70;99.90
14401;DHT22;7285;50.894;5.462;2024-03-22T06:19:23;11.70;99.90
14401;DHT22;7285;50.894;5.462;2024-03-22T06:21:49;11.80;99.90
14401;DHT22;7285;50.894;5.462;2024-03-22T06:24:17;11.80;99.90
14401;DHT22;7285;50.894;5.462;2024-03-22T06:26:44;11.80;99.90
14401;DHT22;7285;50.894;5.462;2024-03-22T06:29:10;11.80;99.90
14401;DHT22;7285;50.894;5.462;2024-03-22T06:31:38;11.90;99.90
14401;DHT22;7285;50.894;5.462;2024-03-22T06:34:04;11.90;99.90
14401;DHT22;7285;50.894;5.462;2024-03-22T06:36:31;11.90;99.90
14401;DHT22;7285;50.894;5.462;2024-03-22T06:38:57;11.90;99.90
14401;DHT22;7285;50.894;5.462;2024-03-22T06:41:27;12.00;99.90
14401;DHT22;7285;50.894;5.462;2024-03-22T06:43:53;12.00;99.90
14401;DHT22;7285;50.894;5.462;2024-03-22T06:46:20;12.00;99.90
14401;DHT22;7285;50.894;5.462;2024-03-22T06:48:46;12.10;99.90
14401;DHT22;7285;50.894;5.462;2024-03-22T06:51:13;12.10;99.90
14401;DHT22;7285;50.894;5.462;2024-03-22T06:53:39;12.20;99.90
14401;DHT22;7285;50.894;5.462;2024-03-22T06:56:06;12.20;99.90
14401;DHT22;7285;50.894;5.462;2024-03-22T06:58:35;12.20;99.90
14401;DHT22;7285;50.894;5.462;2024-03-22T07:01:02;12.20;99.90
14401;DHT22;7285;50.894;5.462;2024-03-22T07:03:28;12.20;99.90
14401;DHT22;7285;50.894;5.462;2024-03-22T07:05:55;12.20;99.90
14401;DHT22;7285;50.894;5.462;2024-03-22T07:08:21;12.30;99.90
14401;DHT22;7285;50.894;5.462;2024-03-22T07:10:48;12.30;99.90
14401;DHT22;7285;50.894;5.462;2024-03-22T07:13:14;12.30;99.90
14401;DHT22;7285;50.894;5.462;2024-03-22T07:15:44;12.30;99.90
14401;DHT22;7285;50.894;5.462;2024-03-22T07:18:10;12.30;99.90
14401;DHT22;7285;50.894;5.462;2024-03-22T07:20:37;12.30;99.90
14401;DHT22;7285;50.894;5.462;2024-03-22T07:23:03;12.30;99.90
14401;DHT22;7285;50.894;5.462;2024-03-22T07:25:30;12.40;99.90
14401;DHT22;7285;50.894;5.462;2024-03-22T07:27:57;12.40;99.90
14401;DHT22;7285;50.894;5.462;2024-03-22T07:30:24;12.40;99.90
14401;DHT22;7285;50.894;5.462;2024-03-22T07:32:52;12.50;99.90
14401;DHT22;7285;50.894;5.462;2024-03-22T07:35:19;12.50;99.90
14401;DHT22;7285;50.894;5.462;2024-03-22T07:37:44;12.50;99.90
14401;DHT22;7285;50.894;5.462;2024-03-22T07:40:11;12.50;99.90
14401;DHT22;7285;50.894;5.462;2024-03-22T07:42:37;12.60;99.90
14401;DHT22;7285;50.894;5.462;2024-03-22T07:45:05;12.60;99.90
14401;DHT22;7285;50.894;5.462;2024-03-22T07:47:31;12.70;99.90
14401;DHT22;7285;50.894;5.462;2024-03-22T07:49:59;12.60;99.90
14401;DHT22;7285;50.894;5.462;2024-03-22T07:52:25;12.70;99.90
14401;DHT22;7285;50.894;5.462;2024-03-22T07:54:52;12.80;99.90
14401;DHT22;7285;50.894;5.462;2024-03-22T07:57:17;12.90;99.90
14401;DHT22;7285;50.894;5.462;2024-03-22T07:59:46;12.90;99.90
14401;DHT22;7285;50.894;5.462;2024-03-22T08:02:12;12.90;99.90
14401;DHT22;7285;50.894;5.462;2024-03-22T08:04:38;12.90;99.90
14401;DHT22;7285;50.894;5.462;2024-03-22T08:07:06;12.90;99.90
14401;DHT22;7285;50.894;5.462;2024-03-22T08:09:33;13.00;99.90
14401;DHT22;7285;50.894;5.462;2024-03-22T08:11:59;12.90;99.90
14401;DHT22;7285;50.894;5.462;2024-03-22T08:14:26;13.00;99.90
14401;DHT22;7285;50.894;5.462;2024-03-22T08:16:52;13.00;99.90
14401;DHT22;7285;50.894;5.462;2024-03-22T08:19:18;13.00;99.90
14401;DHT22;7285;50.894;5.462;2024-03-22T08:21:44;13.10;99.90
14401;DHT22;7285;50.894;5.462;2024-03-22T08:24:12;13.20;99.90
14401;DHT22;7285;50.894;5.462;2024-03-22T08:26:38;13.20;99.90
14401;DHT22;7285;50.894;5.462;2024-03-22T08:29:05;13.30;99.90
14401;DHT22;7285;50.894;5.462;2024-03-22T08:31:31;13.40;99.90
14401;DHT22;7285;50.894;5.462;2024-03-22T08:33:58;13.40;99.90
14401;DHT22;7285;50.894;5.462;2024-03-22T08:36:24;13.40;99.90
14401;DHT22;7285;50.894;5.462;2024-03-22T08:38:51;13.30;99.90
14401;DHT22;7285;50.894;5.462;2024-03-22T08:41:18;13.40;99.90
14401;DHT22;7285;50.894;5.462;2024-03-22T08:43:45;13.40;99.90
14401;DHT22;7285;50.894;5.462;2024-03-22T08:46:11;13.40;99.90
14401;DHT22;7285;50.894;5.462;2024-03-22T08:48:38;13.40;99.90
14401;DHT22;7285;50.894;5.462;2024-03-22T08:51:04;13.40;99.90
14401;DHT22;7285;50.894;5.462;2024-03-22T08:53:31;13.40;99.90
14401;DHT22;7285;50.894;5.462;2024-03-22T08:55:57;13.30;99.90
14401;DHT22;7285;50.894;5.462;2024-03-22T08:58:25;13.50;99.90
14401;DHT22;7285;50.894;5.462;2024-03-22T09:00:51;13.30;99.90
14401;DHT22;7285;50.894;5.462;2024-03-22T09:03:19;13.50;99.90
14401;DHT22;7285;50.894;5.462;2024-03-22T09:05:46;13.70;99.90
14401;DHT22;7285;50.894;5.462;2024-03-22T09:08:13;13.50;99.90
14401;DHT22;7285;50.894;5.462;2024-03-22T09:10:39;13.50;99.90
14401;DHT22;7285;50.894;5.462;2024-03-22T09:13:06;13.40;99.90
14401;DHT22;7285;50.894;5.462;2024-03-22T09:15:33;13.70;99.90
14401;DHT22;7285;50.894;5.462;2024-03-22T09:18:00;13.90;99.90
14401;DHT22;7285;50.894;5.462;2024-03-22T09:20:27;14.00;99.90
14401;DHT22;7285;50.894;5.462;2024-03-22T09:22:54;14.00;99.90
14401;DHT22;7285;50.894;5.462;2024-03-22T09:25:19;14.20;99.90
14401;DHT22;7285;50.894;5.462;2024-03-22T09:27:46;14.30;99.90
14401;DHT22;7285;50.894;5.462;2024-03-22T09:30:13;14.30;99.90
14401;DHT22;7285;50.894;5.462;2024-03-22T09:32:41;14.40;99.90
14401;DHT22;7285;50.894;5.462;2024-03-22T09:35:08;14.50;99.90
14401;DHT22;7285;50.894;5.462;2024-03-22T09:37:35;14.30;99.90
14401;DHT22;7285;50.894;5.462;2024-03-22T09:40:01;14.40;99.90
14401;DHT22;7285;50.894;5.462;2024-03-22T09:42:33;14.20;99.90
14401;DHT22;7285;50.894;5.462;2024-03-22T09:44:59;14.10;99.90
14401;DHT22;7285;50.894;5.462;2024-03-22T09:47:27;13.90;99.90
14401;DHT22;7285;50.894;5.462;2024-03-22T09:49:55;13.90;99.90
14401;DHT22;7285;50.894;5.462;2024-03-22T09:52:23;13.80;99.90
14401;DHT22;7285;50.894;5.462;2024-03-22T09:54:49;13.70;99.90
14401;DHT22;7285;50.894;5.462;2024-03-22T09:57:17;13.70;99.90
14401;DHT22;7285;50.894;5.462;2024-03-22T09:59:43;13.90;99.90
14401;DHT22;7285;50.894;5.462;2024-03-22T10:02:11;13.90;99.90
14401;DHT22;7285;50.894;5.462;2024-03-22T10:04:38;13.90;99.90
14401;DHT22;7285;50.894;5.462;2024-03-22T10:07:06;14.00;99.90
14401;DHT22;7285;50.894;5.462;2024-03-22T10:09:33;14.00;99.90
14401;DHT22;7285;50.894;5.462;2024-03-22T10:12:00;14.00;99.90
14401;DHT22;7285;50.894;5.462;2024-03-22T10:14:26;13.80;99.90
14401;DHT22;7285;50.894;5.462;2024-03-22T10:16:53;13.80;99.90
14401;DHT22;7285;50.894;5.462;2024-03-22T10:19:19;13.80;99.90
14401;DHT22;7285;50.894;5.462;2024-03-22T10:21:47;14.00;99.90
14401;DHT22;7285;50.894;5.462;2024-03-22T10:24:15;14.00;99.90
14401;DHT22;7285;50.894;5.462;2024-03-22T10:26:42;13.90;99.90
14401;DHT22;7285;50.894;5.462;2024-03-22T10:29:08;14.00;99.90
14401;DHT22;7285;50.894;5.462;2024-03-22T10:31:35;14.00;99.90
14401;DHT22;7285;50.894;5.462;2024-03-22T10:34:02;13.90;99.90
14401;DHT22;7285;50.894;5.462;2024-03-22T10:36:32;14.10;99.90
14401;DHT22;7285;50.894;5.462;2024-03-22T10:38:59;14.20;99.90
14401;DHT22;7285;50.894;5.462;2024-03-22T10:41:28;14.20;99.90
14401;DHT22;7285;50.894;5.462;2024-03-22T10:43:54;14.40;99.90
14401;DHT22;7285;50.894;5.462;2024-03-22T10:46:25;14.20;99.90
14401;DHT22;7285;50.894;5.462;2024-03-22T10:48:55;14.10;99.90
14401;DHT22;7285;50.894;5.462;2024-03-22T10:51:24;14.30;99.90
14401;DHT22;7285;50.894;5.462;2024-03-22T10:53:51;14.30;99.90
14401;DHT22;7285;50.894;5.462;2024-03-22T10:56:21;14.40;99.90
14401;DHT22;7285;50.894;5.462;2024-03-22T10:58:49;14.60;99.90
14401;DHT22;7285;50.894;5.462;2024-03-22T11:01:25;14.50;99.90
14401;DHT22;7285;50.894;5.462;2024-03-22T11:03:51;14.30;99.90
14401;DHT22;7285;50.894;5.462;2024-03-22T11:06:31;14.20;99.90
14401;DHT22;7285;50.894;5.462;2024-03-22T11:08:59;14.30;99.90
14401;DHT22;7285;50.894;5.462;2024-03-22T11:11:28;14.40;99.90
14401;DHT22;7285;50.894;5.462;2024-03-22T11:13:56;14.60;99.90
14401;DHT22;7285;50.894;5.462;2024-03-22T11:16:23;14.50;99.90
14401;DHT22;7285;50.894;5.462;2024-03-22T11:18:50;14.70;99.90
14401;DHT22;7285;50.894;5.462;2024-03-22T11:21:17;14.80;99.90
14401;DHT22;7285;50.894;5.462;2024-03-22T11:23:45;14.70;99.90
14401;DHT22;7285;50.894;5.462;2024-03-22T11:26:12;14.60;99.90
14401;DHT22;7285;50.894;5.462;2024-03-22T11:28:38;14.60;99.90
14401;DHT22;7285;50.894;5.462;2024-03-22T11:31:06;14.70;99.90
14401;DHT22;7285;50.894;5.462;2024-03-22T11:33:32;14.70;99.90
14401;DHT22;7285;50.894;5.462;2024-03-22T11:35:59;15.20;99.90
14401;DHT22;7285;50.894;5.462;2024-03-22T11:38:26;15.40;99.90
14401;DHT22;7285;50.894;5.462;2024-03-22T11:40:54;15.50;99.90
14401;DHT22;7285;50.894;5.462;2024-03-22T11:43:21;15.50;99.90
14401;DHT22;7285;50.894;5.462;2024-03-22T11:45:48;15.50;99.90
14401;DHT22;7285;50.894;5.462;2024-03-22T11:48:15;15.40;99.90
14401;DHT22;7285;50.894;5.462;2024-03-22T11:50:43;15.20;99.90
14401;DHT22;7285;50.894;5.462;2024-03-22T11:53:09;15.10;99.90
14401;DHT22;7285;50.894;5.462;2024-03-22T11:55:36;15.20;99.90
14401;DHT22;7285;50.894;5.462;2024-03-22T11:58:02;15.20;99.90
14401;DHT22;7285;50.894;5.462;2024-03-22T12:00:28;15.30;99.90
14401;DHT22;7285;50.894;5.462;2024-03-22T12:02:54;15.30;99.90
14401;DHT22;7285;50.894;5.462;2024-03-22T12:05:23;15.10;99.90
14401;DHT22;7285;50.894;5.462;2024-03-22T12:07:51;15.10;99.90
14401;DHT22;7285;50.894;5.462;2024-03-22T12:10:18;14.60;99.90
14401;DHT22;7285;50.894;5.462;2024-03-22T12:12:44;14.70;99.90
14401;DHT22;7285;50.894;5.462;2024-03-22T12:15:11;14.60;99.90
14401;DHT22;7285;50.894;5.462;2024-03-22T12:17:37;14.50;99.90
14401;DHT22;7285;50.894;5.462;2024-03-22T12:20:06;14.50;99.90
14401;DHT22;7285;50.894;5.462;2024-03-22T12:22:35;14.30;99.90
14401;DHT22;7285;50.894;5.462;2024-03-22T12:25:02;14.10;99.90
14401;DHT22;7285;50.894;5.462;2024-03-22T12:27:30;14.30;99.90
14401;DHT22;7285;50.894;5.462;2024-03-22T12:29:56;14.30;99.90
14401;DHT22;7285;50.894;5.462;2024-03-22T12:32:22;14.30;99.90
14401;DHT22;7285;50.894;5.462;2024-03-22T12:34:50;14.40;99.90
14401;DHT22;7285;50.894;5.462;2024-03-22T12:37:16;14.40;99.90
14401;DHT22;7285;50.894;5.462;2024-03-22T12:39:44;14.40;99.90
14401;DHT22;7285;50.894;5.462;2024-03-22T12:42:10;14.50;99.90
14401;DHT22;7285;50.894;5.462;2024-03-22T12:44:37;14.60;99.90
14401;DHT22;7285;50.894;5.462;2024-03-22T12:47:03;14.60;99.90
14401;DHT22;7285;50.894;5.462;2024-03-22T12:49:30;14.30;99.90
14401;DHT22;7285;50.894;5.462;2024-03-22T12:51:56;14.20;99.90
14401;DHT22;7285;50.894;5.462;2024-03-22T12:54:23;14.40;99.90
14401;DHT22;7285;50.894;5.462;2024-03-22T12:56:52;14.40;99.90
14401;DHT22;7285;50.894;5.462;2024-03-22T12:59:19;14.40;99.90
14401;DHT22;7285;50.894;5.462;2024-03-22T13:01:45;14.50;99.90
14401;DHT22;7285;50.894;5.462;2024-03-22T13:04:12;14.50;99.90
14401;DHT22;7285;50.894;5.462;2024-03-22T13:06:38;14.50;99.90
14401;DHT22;7285;50.894;5.462;2024-03-22T13:09:05;14.30;99.90
14401;DHT22;7285;50.894;5.462;2024-03-22T13:11:31;14.30;99.90
14401;DHT22;7285;50.894;5.462;2024-03-22T13:14:00;14.20;99.90
14401;DHT22;7285;50.894;5.462;2024-03-22T13:16:26;14.30;99.90
14401;DHT22;7285;50.894;5.462;2024-03-22T13:18:53;14.40;99.90
14401;DHT22;7285;50.894;5.462;2024-03-22T13:21:19;14.30;99.90
14401;DHT22;7285;50.894;5.462;2024-03-22T13:23:46;14.10;99.90
14401;DHT22;7285;50.894;5.462;2024-03-22T13:26:12;14.10;99.90
14401;DHT22;7285;50.894;5.462;2024-03-22T13:28:38;14.10;99.90
14401;DHT22;7285;50.894;5.462;2024-03-22T13:31:07;14.10;99.90
14401;DHT22;7285;50.894;5.462;2024-03-22T13:33:34;13.90;99.90
14401;DHT22;7285;50.894;5.462;2024-03-22T13:36:00;13.70;99.90
14401;DHT22;7285;50.894;5.462;2024-03-22T13:38:27;13.70;99.90
14401;DHT22;7285;50.894;5.462;2024-03-22T13:40:54;13.60;99.90
14401;DHT22;7285;50.894;5.462;2024-03-22T13:43:21;13.60;99.90
14401;DHT22;7285;50.894;5.462;2024-03-22T13:45:50;13.50;99.90
14401;DHT22;7285;50.894;5.462;2024-03-22T13:48:21;13.50;99.90
14401;DHT22;7285;50.894;5.462;2024-03-22T13:50:50;13.50;99.90
14401;DHT22;7285;50.894;5.462;2024-03-22T13:53:17;13.50;99.90
14401;DHT22;7285;50.894;5.462;2024-03-22T13:55:43;13.30;99.90
14401;DHT22;7285;50.894;5.462;2024-03-22T13:58:10;13.30;99.90
14401;DHT22;7285;50.894;5.462;2024-03-22T14:00:36;13.30;99.90
14401;DHT22;7285;50.894;5.462;2024-03-22T14:03:03;13.30;99.90
14401;DHT22;7285;50.894;5.462;2024-03-22T14:05:31;13.30;99.90
14401;DHT22;7285;50.894;5.462;2024-03-22T14:07:58;13.30;99.90
14401;DHT22;7285;50.894;5.462;2024-03-22T14:10:24;13.30;99.90
14401;DHT22;7285;50.894;5.462;2024-03-22T14:12:53;13.30;99.90
14401;DHT22;7285;50.894;5.462;2024-03-22T14:15:19;13.30;99.90
14401;DHT22;7285;50.894;5.462;2024-03-22T14:17:46;13.40;99.90
14401;DHT22;7285;50.894;5.462;2024-03-22T14:20:12;13.40;99.90
14401;DHT22;7285;50.894;5.462;2024-03-22T14:22:40;13.40;99.90
14401;DHT22;7285;50.894;5.462;2024-03-22T14:25:07;13.30;99.90
14401;DHT22;7285;50.894;5.462;2024-03-22T14:27:36;13.30;99.90
14401;DHT22;7285;50.894;5.462;2024-03-22T14:30:05;13.30;99.90
14401;DHT22;7285;50.894;5.462;2024-03-22T14:32:33;13.10;99.90
14401;DHT22;7285;50.894;5.462;2024-03-22T14:34:59;13.00;99.90
14401;DHT22;7285;50.894;5.462;2024-03-22T14:37:26;13.00;99.90
14401;DHT22;7285;50.894;5.462;2024-03-22T14:39:53;12.90;99.90
14401;DHT22;7285;50.894;5.462;2024-03-22T14:42:20;12.90;99.90
14401;DHT22;7285;50.894;5.462;2024-03-22T14:44:46;12.90;99.90
14401;DHT22;7285;50.894;5.462;2024-03-22T14:47:13;13.00;99.90
14401;DHT22;7285;50.894;5.462;2024-03-22T14:49:39;13.00;99.90
14401;DHT22;7285;50.894;5.462;2024-03-22T14:52:07;13.00;99.90
14401;DHT22;7285;50.894;5.462;2024-03-22T14:54:32;12.80;99.90
14401;DHT22;7285;50.894;5.462;2024-03-22T14:57:01;12.70;99.90
14401;DHT22;7285;50.894;5.462;2024-03-22T14:59:27;12.70;99.90
14401;DHT22;7285;50.894;5.462;2024-03-22T15:01:54;12.50;99.90
14401;DHT22;7285;50.894;5.462;2024-03-22T15:04:20;12.50;99.90
14401;DHT22;7285;50.894;5.462;2024-03-22T15:06:47;12.40;99.90
14401;DHT22;7285;50.894;5.462;2024-03-22T15:09:16;12.20;99.90
14401;DHT22;7285;50.894;5.462;2024-03-22T15:11:44;12.10;99.90
14401;DHT22;7285;50.894;5.462;2024-03-22T15:14:11;12.00;99.90
14401;DHT22;7285;50.894;5.462;2024-03-22T15:16:38;12.00;99.90
14401;DHT22;7285;50.894;5.462;2024-03-22T15:19:04;11.90;99.90
14401;DHT22;7285;50.894;5.462;2024-03-22T15:21:31;11.70;99.90
14401;DHT22;7285;50.894;5.462;2024-03-22T15:23:57;11.50;99.90
14401;DHT22;7285;50.894;5.462;2024-03-22T15:26:24;11.50;99.90
14401;DHT22;7285;50.894;5.462;2024-03-22T15:28:50;11.50;99.90
14401;DHT22;7285;50.894;5.462;2024-03-22T15:31:18;11.50;99.90
14401;DHT22;7285;50.894;5.462;2024-03-22T15:33:44;11.30;99.90
14401;DHT22;7285;50.894;5.462;2024-03-22T15:36:11;11.40;99.90
14401;DHT22;7285;50.894;5.462;2024-03-22T15:38:36;11.40;99.90
14401;DHT22;7285;50.894;5.462;2024-03-22T15:41:03;11.40;99.90
14401;DHT22;7285;50.894;5.462;2024-03-22T15:43:29;11.30;99.90